Time;durP1;ratioP1;P1;durP2;ratioP2;P2;SDS_P1;SDS_P2;PMS_P1;PMS_P2;Temp;Humidity;BMP_temperature;BMP_pressure;BME280_temperature;BME280_humidity;BME280_pressure;Samples;Min_cycle;Max_cycle;Signal;HPM_P1;HPM_P2
2023/01/28 00:01:16;;;;;;;0.20;0.17;;;;;;;;;;4856228;29;20211;-62
2023/01/28 00:03:44;;;;;;;0.50;0.50;;;;;;;;;;4853884;29;20210;-62
2023/01/28 00:06:12;;;;;;;0.47;0.47;;;;;;;;;;4850885;29;20230;-61
2023/01/28 00:08:41;;;;;;;2.17;0.37;;;;;;;;;;4855849;29;20223;-61
2023/01/28 00:11:09;;;;;;;0.10;0.10;;;;;;;;;;4854320;29;20760;-61
2023/01/28 00:13:36;;;;;;;0.00;0.00;;;;;;;;;;4851184;29;20277;-61
2023/01/28 00:16:06;;;;;;;0.00;0.00;;;;;;;;;;4852111;29;20593;-60
2023/01/28 00:18:34;;;;;;;0.30;0.30;;;;;;;;;;4852636;29;20645;-60
2023/01/28 00:21:01;;;;;;;0.50;0.27;;;;;;;;;;4855347;29;20241;-61
2023/01/28 00:23:29;;;;;;;0.50;0.27;;;;;;;;;;4851538;29;20230;-63
2023/01/28 00:26:00;;;;;;;0.63;0.60;;;;;;;;;;4854132;29;20217;-61
2023/01/28 00:28:27;;;;;;;0.20;0.20;;;;;;;;;;4853976;29;20255;-61
2023/01/28 00:30:54;;;;;;;0.10;0.10;;;;;;;;;;4856678;29;20687;-63
2023/01/28 00:33:21;;;;;;;0.07;0.07;;;;;;;;;;4856914;29;20223;-61
2023/01/28 00:35:48;;;;;;;0.10;0.10;;;;;;;;;;4854924;29;20222;-62
2023/01/28 00:38:15;;;;;;;0.20;0.20;;;;;;;;;;4856993;29;20282;-61
2023/01/28 00:40:42;;;;;;;0.20;0.20;;;;;;;;;;4856564;29;20276;-61
2023/01/28 00:43:13;;;;;;;0.27;0.27;;;;;;;;;;4856250;29;20783;-61
2023/01/28 00:45:40;;;;;;;1.60;0.57;;;;;;;;;;4857215;29;20230;-60
2023/01/28 00:48:07;;;;;;;0.87;0.40;;;;;;;;;;4856705;29;20206;-64
2023/01/28 00:50:34;;;;;;;0.50;0.10;;;;;;;;;;4857242;29;20388;-62
2023/01/28 00:53:01;;;;;;;0.03;0.03;;;;;;;;;;4856787;29;20265;-62
2023/01/28 00:55:28;;;;;;;1.40;0.93;;;;;;;;;;4854351;29;20266;-62
2023/01/28 00:57:55;;;;;;;0.53;0.17;;;;;;;;;;4856812;29;20557;-61
2023/01/28 01:00:26;;;;;;;0.30;0.30;;;;;;;;;;4855945;29;20225;-61
2023/01/28 01:02:53;;;;;;;0.10;0.10;;;;;;;;;;4856828;29;20715;-61
2023/01/28 01:05:20;;;;;;;0.97;0.20;;;;;;;;;;4855647;29;20218;-61
2023/01/28 01:07:47;;;;;;;0.20;0.20;;;;;;;;;;4853881;29;20271;-61
2023/01/28 01:10:16;;;;;;;0.10;0.10;;;;;;;;;;4846322;29;20237;-61
2023/01/28 01:12:44;;;;;;;0.50;0.30;;;;;;;;;;4855918;29;20238;-61
2023/01/28 01:15:12;;;;;;;0.10;0.10;;;;;;;;;;4855080;29;20217;-62
2023/01/28 01:17:41;;;;;;;0.43;0.43;;;;;;;;;;4855779;29;20264;-62
2023/01/28 01:20:09;;;;;;;0.23;0.23;;;;;;;;;;4846456;29;20256;-61
2023/01/28 01:22:37;;;;;;;0.10;0.10;;;;;;;;;;4855616;29;20242;-62
2023/01/28 01:25:04;;;;;;;0.13;0.07;;;;;;;;;;4856068;29;20211;-62
2023/01/28 01:27:31;;;;;;;0.10;0.10;;;;;;;;;;4854967;29;20217;-62
2023/01/28 01:29:58;;;;;;;0.00;0.00;;;;;;;;;;4844205;29;20213;-62
2023/01/28 01:32:26;;;;;;;0.17;0.17;;;;;;;;;;4850080;29;20610;-62
2023/01/28 01:34:54;;;;;;;0.03;0.03;;;;;;;;;;4856314;29;20274;-62
2023/01/28 01:37:21;;;;;;;0.83;0.83;;;;;;;;;;4855752;29;20206;-62
2023/01/28 01:39:48;;;;;;;0.30;0.30;;;;;;;;;;4855648;29;20214;-61
2023/01/28 01:42:16;;;;;;;0.40;0.40;;;;;;;;;;4855463;29;20750;-62
2023/01/28 01:45:02;;;;;;;0.20;0.20;;;;;;;;;;4855810;29;20278;-62
2023/01/28 01:47:32;;;;;;;0.00;0.00;;;;;;;;;;4855522;29;20207;-62
2023/01/28 01:50:02;;;;;;;6.80;0.37;;;;;;;;;;4855404;29;20635;-62
2023/01/28 01:52:32;;;;;;;0.40;0.40;;;;;;;;;;4855270;29;20252;-62
2023/01/28 01:55:00;;;;;;;0.70;0.70;;;;;;;;;;4855920;29;20223;-61
2023/01/28 01:57:30;;;;;;;0.90;0.70;;;;;;;;;;4855457;29;20202;-62
2023/01/28 02:00:04;;;;;;;0.53;0.53;;;;;;;;;;4855096;29;20273;-62
2023/01/28 02:02:32;;;;;;;0.40;0.40;;;;;;;;;;4855769;29;20202;-62
2023/01/28 02:05:00;;;;;;;3.20;1.00;;;;;;;;;;4855094;29;20218;-61
2023/01/28 02:07:27;;;;;;;0.60;0.60;;;;;;;;;;4852040;29;20262;-62
2023/01/28 02:09:54;;;;;;;2.37;0.70;;;;;;;;;;4855491;29;20937;-61
2023/01/28 02:12:23;;;;;;;0.90;0.90;;;;;;;;;;4854521;29;20241;-62
2023/01/28 02:14:54;;;;;;;0.50;0.50;;;;;;;;;;4854841;29;20270;-61
2023/01/28 02:17:22;;;;;;;0.90;0.90;;;;;;;;;;4854868;29;20627;-61
2023/01/28 02:19:51;;;;;;;0.10;0.10;;;;;;;;;;4855039;29;20673;-62
2023/01/28 02:22:28;;;;;;;3.13;0.87;;;;;;;;;;4855277;29;20242;-62
2023/01/28 02:25:11;;;;;;;0.20;0.20;;;;;;;;;;4852785;29;20210;-62
2023/01/28 02:27:40;;;;;;;0.10;0.10;;;;;;;;;;4855499;29;20262;-61
2023/01/28 02:30:11;;;;;;;1.10;0.77;;;;;;;;;;4840053;29;20214;-62
2023/01/28 02:32:41;;;;;;;0.43;0.43;;;;;;;;;;4846591;29;20241;-61
2023/01/28 02:35:13;;;;;;;0.30;0.30;;;;;;;;;;4855549;29;20210;-61
2023/01/28 02:37:44;;;;;;;0.43;0.40;;;;;;;;;;4855043;29;20220;-61
2023/01/28 02:40:13;;;;;;;4.70;0.10;;;;;;;;;;4854667;29;20613;-61
2023/01/28 02:42:41;;;;;;;0.87;0.73;;;;;;;;;;4855564;29;20263;-61
2023/01/28 02:45:21;;;;;;;0.47;0.47;;;;;;;;;;4855540;29;20217;-62
2023/01/28 02:47:56;;;;;;;0.63;0.63;;;;;;;;;;4842225;29;20206;-61
2023/01/28 02:50:24;;;;;;;1.13;1.03;;;;;;;;;;4855120;29;20664;-61
2023/01/28 02:55:54;;;;;;;0.70;0.70;;;;;;;;;;4832499;29;20301;-62
2023/01/28 02:58:24;;;;;;;0.57;0.30;;;;;;;;;;4855353;29;20218;-62
2023/01/28 03:00:55;;;;;;;0.37;0.30;;;;;;;;;;4852944;29;20206;-62
2023/01/28 03:03:26;;;;;;;0.80;0.40;;;;;;;;;;4855333;29;20276;-62
2023/01/28 03:06:04;;;;;;;0.17;0.17;;;;;;;;;;4858578;29;20210;-62
2023/01/28 03:38:57;;;;;;;0.10;0.10;;;;;;;;;;4858020;29;20586;-62
2023/01/28 03:41:25;;;;;;;0.60;0.60;;;;;;;;;;4858148;29;20256;-62
2023/01/28 03:43:53;;;;;;;0.00;0.00;;;;;;;;;;4857505;29;20227;-62
2023/01/28 03:46:21;;;;;;;0.40;0.40;;;;;;;;;;4857943;29;20221;-62
2023/01/28 03:48:49;;;;;;;0.10;0.10;;;;;;;;;;4857758;29;20285;-62
2023/01/28 03:51:16;;;;;;;2.00;0.37;;;;;;;;;;4857378;29;20206;-62
2023/01/28 03:53:43;;;;;;;0.23;0.23;;;;;;;;;;4857279;29;20237;-62
2023/01/28 03:56:17;;;;;;;1.70;0.83;;;;;;;;;;4857776;29;20213;-62
2023/01/28 03:58:51;;;;;;;0.67;0.67;;;;;;;;;;4857373;29;20219;-62
2023/01/28 04:01:18;;;;;;;0.23;0.20;;;;;;;;;;4857950;29;20217;-62
2023/01/28 04:03:45;;;;;;;0.43;0.27;;;;;;;;;;4856896;29;20204;-62
2023/01/28 04:06:14;;;;;;;0.37;0.23;;;;;;;;;;4857682;29;20264;-62
2023/01/28 04:08:47;;;;;;;0.10;0.10;;;;;;;;;;4857357;29;20245;-62
2023/01/28 04:11:18;;;;;;;0.33;0.33;;;;;;;;;;4855520;29;20275;-62
2023/01/28 04:13:46;;;;;;;0.10;0.10;;;;;;;;;;4848608;29;20349;-62
2023/01/28 04:16:13;;;;;;;0.83;0.50;;;;;;;;;;4856528;29;20236;-62
2023/01/28 04:18:40;;;;;;;0.30;0.30;;;;;;;;;;4857278;29;20218;-62
2023/01/28 04:21:07;;;;;;;0.97;0.97;;;;;;;;;;4856998;29;20284;-62
2023/01/28 04:23:36;;;;;;;0.13;0.13;;;;;;;;;;4856851;29;20297;-60
2023/01/28 04:26:03;;;;;;;0.20;0.17;;;;;;;;;;4857109;29;20214;-60
2023/01/28 04:28:30;;;;;;;0.60;0.60;;;;;;;;;;4853161;29;20689;-60
2023/01/28 04:30:57;;;;;;;1.03;0.43;;;;;;;;;;4857349;29;20268;-61
2023/01/28 04:33:24;;;;;;;0.13;0.10;;;;;;;;;;4856909;29;20245;-63
2023/01/28 04:35:51;;;;;;;0.00;0.00;;;;;;;;;;4857380;29;20627;-60
2023/01/28 04:38:18;;;;;;;0.47;0.47;;;;;;;;;;4848306;29;20218;-61
2023/01/28 04:40:49;;;;;;;0.27;0.27;;;;;;;;;;4857071;29;20232;-60
2023/01/28 04:43:16;;;;;;;0.40;0.40;;;;;;;;;;4855841;29;20213;-60
2023/01/28 04:45:44;;;;;;;0.10;0.10;;;;;;;;;;4855863;29;20218;-60
2023/01/28 04:48:11;;;;;;;0.13;0.10;;;;;;;;;;4855584;29;20224;-63
2023/01/28 04:50:38;;;;;;;0.93;0.93;;;;;;;;;;4856729;29;20217;-63
2023/01/28 04:53:05;;;;;;;0.20;0.20;;;;;;;;;;4856316;29;20237;-60
2023/01/28 04:55:32;;;;;;;0.07;0.03;;;;;;;;;;4856034;29;20262;-60
2023/01/28 04:58:00;;;;;;;0.20;0.20;;;;;;;;;;4856031;29;20733;-60
2023/01/28 05:00:27;;;;;;;0.10;0.10;;;;;;;;;;4856684;29;20210;-60
2023/01/28 05:02:54;;;;;;;4.53;0.43;;;;;;;;;;4855057;29;20278;-60
2023/01/28 05:05:21;;;;;;;0.60;0.60;;;;;;;;;;4856467;29;20212;-60
2023/01/28 05:07:51;;;;;;;0.20;0.20;;;;;;;;;;4856461;29;20232;-60
2023/01/28 05:10:19;;;;;;;0.43;0.43;;;;;;;;;;4852319;29;20241;-62
2023/01/28 05:12:46;;;;;;;0.00;0.00;;;;;;;;;;4856417;29;20205;-63
2023/01/28 05:15:14;;;;;;;0.27;0.27;;;;;;;;;;4857044;29;20220;-60
2023/01/28 05:17:42;;;;;;;0.30;0.30;;;;;;;;;;4856416;29;20697;-60
2023/01/28 05:20:10;;;;;;;1.77;0.63;;;;;;;;;;4855104;29;20328;-62
2023/01/28 05:22:37;;;;;;;0.20;0.20;;;;;;;;;;4855887;29;20664;-63
2023/01/28 05:25:04;;;;;;;0.83;0.40;;;;;;;;;;4857031;29;20404;-63
2023/01/28 05:27:32;;;;;;;0.80;0.80;;;;;;;;;;4856391;29;20218;-63
2023/01/28 05:29:59;;;;;;;0.13;0.13;;;;;;;;;;4855547;29;20317;-60
2023/01/28 05:32:27;;;;;;;0.23;0.23;;;;;;;;;;4856102;29;20723;-62
2023/01/28 05:34:54;;;;;;;0.73;0.73;;;;;;;;;;4855692;29;20500;-63
2023/01/28 05:37:21;;;;;;;0.20;0.20;;;;;;;;;;4859347;29;20916;-63
2023/01/28 05:39:48;;;;;;;0.03;0.03;;;;;;;;;;4856145;29;20213;-60
2023/01/28 05:42:17;;;;;;;2.13;0.50;;;;;;;;;;4855456;29;20634;-60
2023/01/28 05:44:44;;;;;;;0.47;0.47;;;;;;;;;;4856046;29;20294;-60
2023/01/28 05:47:11;;;;;;;0.40;0.40;;;;;;;;;;4855576;29;20695;-60
2023/01/28 05:49:39;;;;;;;0.20;0.20;;;;;;;;;;4855445;29;20214;-60
2023/01/28 05:52:06;;;;;;;0.17;0.17;;;;;;;;;;4855372;29;20221;-60
2023/01/28 05:54:33;;;;;;;0.00;0.00;;;;;;;;;;4855279;29;20245;-60
2023/01/28 05:57:00;;;;;;;0.10;0.10;;;;;;;;;;4854949;29;20215;-60
2023/01/28 05:59:27;;;;;;;0.73;0.20;;;;;;;;;;4855473;29;20229;-60
2023/01/28 06:01:54;;;;;;;0.07;0.07;;;;;;;;;;4854433;29;20455;-61
2023/01/28 06:04:21;;;;;;;0.37;0.37;;;;;;;;;;4855420;29;20210;-60
2023/01/28 06:06:50;;;;;;;0.30;0.30;;;;;;;;;;4854709;29;20277;-60
2023/01/28 06:09:17;;;;;;;1.13;0.60;;;;;;;;;;4855211;29;20595;-62
2023/01/28 06:11:44;;;;;;;3.10;0.43;;;;;;;;;;4855452;29;20224;-63
2023/01/28 06:14:11;;;;;;;0.43;0.43;;;;;;;;;;4855180;29;20234;-63
2023/01/28 06:16:38;;;;;;;0.30;0.30;;;;;;;;;;4855300;29;20665;-62
2023/01/28 06:19:05;;;;;;;2.00;0.60;;;;;;;;;;4855176;29;20217;-63
2023/01/28 06:21:32;;;;;;;0.40;0.40;;;;;;;;;;4855205;29;20237;-63
2023/01/28 06:24:01;;;;;;;0.10;0.10;;;;;;;;;;4854239;29;20238;-60
2023/01/28 06:26:28;;;;;;;0.50;0.50;;;;;;;;;;4855541;29;20218;-60
2023/01/28 06:28:55;;;;;;;0.30;0.30;;;;;;;;;;4854810;29;20279;-60
2023/01/28 06:31:22;;;;;;;0.20;0.20;;;;;;;;;;4854442;29;20214;-60
2023/01/28 06:33:49;;;;;;;0.07;0.07;;;;;;;;;;4854810;29;20944;-60
2023/01/28 06:36:16;;;;;;;0.13;0.10;;;;;;;;;;4854251;29;20218;-60
2023/01/28 06:38:43;;;;;;;0.47;0.47;;;;;;;;;;4855277;29;20208;-60
2023/01/28 06:41:11;;;;;;;0.50;0.50;;;;;;;;;;4859010;29;20215;-62
2023/01/28 06:43:38;;;;;;;0.10;0.10;;;;;;;;;;4858818;29;20214;-63
2023/01/28 06:46:06;;;;;;;0.30;0.30;;;;;;;;;;4858974;29;20226;-62
2023/01/28 06:48:33;;;;;;;15.40;0.83;;;;;;;;;;4858947;29;20749;-62
2023/01/28 06:51:00;;;;;;;0.20;0.03;;;;;;;;;;4858493;29;20219;-63
2023/01/28 06:53:27;;;;;;;0.10;0.10;;;;;;;;;;4858397;29;20672;-63
2023/01/28 06:55:54;;;;;;;0.00;0.00;;;;;;;;;;4856810;29;20338;-63
2023/01/28 06:58:23;;;;;;;0.00;0.00;;;;;;;;;;4858583;29;20221;-63
2023/01/28 07:00:50;;;;;;;0.47;0.20;;;;;;;;;;4858012;29;20246;-62
2023/01/28 07:03:17;;;;;;;0.20;0.20;;;;;;;;;;4846160;29;20603;-62
2023/01/28 07:05:44;;;;;;;0.53;0.30;;;;;;;;;;4858327;29;20219;-61
2023/01/28 07:08:11;;;;;;;0.10;0.10;;;;;;;;;;4857646;29;20357;-62
2023/01/28 07:10:38;;;;;;;0.33;0.33;;;;;;;;;;4858213;29;20213;-61
2023/01/28 07:13:05;;;;;;;0.53;0.30;;;;;;;;;;4857837;29;20607;-62
2023/01/28 07:15:33;;;;;;;0.20;0.20;;;;;;;;;;4858595;29;20234;-61
2023/01/28 07:18:00;;;;;;;0.03;0.03;;;;;;;;;;4857629;29;20221;-62
2023/01/28 07:20:27;;;;;;;0.20;0.20;;;;;;;;;;4858519;29;20281;-62
2023/01/28 07:22:54;;;;;;;0.43;0.43;;;;;;;;;;4857939;29;20744;-62
2023/01/28 07:25:21;;;;;;;0.10;0.10;;;;;;;;;;4857848;29;20212;-62
2023/01/28 07:27:49;;;;;;;0.57;0.50;;;;;;;;;;4858109;29;20743;-62
2023/01/28 07:30:17;;;;;;;0.10;0.10;;;;;;;;;;4857277;29;20218;-62
2023/01/28 07:32:45;;;;;;;0.07;0.07;;;;;;;;;;4855222;29;20222;-60
2023/01/28 07:35:12;;;;;;;0.83;0.83;;;;;;;;;;4857863;29;20232;-61
2023/01/28 07:37:40;;;;;;;0.10;0.10;;;;;;;;;;4857398;29;20217;-61
2023/01/28 07:40:08;;;;;;;0.10;0.10;;;;;;;;;;4858048;29;20221;-62
2023/01/28 07:42:35;;;;;;;0.20;0.20;;;;;;;;;;4856947;29;20213;-61
2023/01/28 07:45:03;;;;;;;0.10;0.10;;;;;;;;;;4857920;29;20597;-62
2023/01/28 07:47:30;;;;;;;0.10;0.10;;;;;;;;;;4857099;29;20223;-62
2023/01/28 07:49:58;;;;;;;0.10;0.10;;;;;;;;;;4856266;29;20213;-61
2023/01/28 07:52:25;;;;;;;0.17;0.17;;;;;;;;;;4857891;29;20824;-61
2023/01/28 07:54:53;;;;;;;0.23;0.17;;;;;;;;;;4857043;29;20238;-62
2023/01/28 07:57:22;;;;;;;0.10;0.10;;;;;;;;;;4857606;29;20314;-62
2023/01/28 07:59:49;;;;;;;0.30;0.30;;;;;;;;;;4856784;29;20327;-62
2023/01/28 08:02:17;;;;;;;0.10;0.10;;;;;;;;;;4856572;29;20225;-66
2023/01/28 08:04:44;;;;;;;0.10;0.10;;;;;;;;;;4857700;29;20217;-62
2023/01/28 08:07:12;;;;;;;0.27;0.27;;;;;;;;;;4857549;29;20293;-62
2023/01/28 08:09:42;;;;;;;0.50;0.50;;;;;;;;;;4849305;29;20210;-62
2023/01/28 08:12:09;;;;;;;0.27;0.27;;;;;;;;;;4854647;29;20213;-62
2023/01/28 08:14:36;;;;;;;0.00;0.00;;;;;;;;;;4857301;29;20241;-62
2023/01/28 08:17:03;;;;;;;1.50;0.20;;;;;;;;;;4856810;29;20297;-62
2023/01/28 08:19:30;;;;;;;0.00;0.00;;;;;;;;;;4857066;29;20576;-62
2023/01/28 08:21:57;;;;;;;0.30;0.30;;;;;;;;;;4857047;29;20268;-62
2023/01/28 08:24:26;;;;;;;0.83;0.27;;;;;;;;;;4857338;29;20223;-62
2023/01/28 08:26:53;;;;;;;0.40;0.40;;;;;;;;;;4856860;29;20214;-62
2023/01/28 08:29:20;;;;;;;0.33;0.33;;;;;;;;;;4856937;29;20960;-62
2023/01/28 08:31:47;;;;;;;0.60;0.60;;;;;;;;;;4856651;29;20214;-61
2023/01/28 08:34:14;;;;;;;0.17;0.17;;;;;;;;;;4856133;29;20242;-61
2023/01/28 08:36:41;;;;;;;0.10;0.10;;;;;;;;;;4857156;29;20221;-61
2023/01/28 08:39:08;;;;;;;0.97;0.47;;;;;;;;;;4856654;29;20228;-61
2023/01/28 08:41:36;;;;;;;0.10;0.10;;;;;;;;;;4856257;29;20297;-62
2023/01/28 08:44:03;;;;;;;0.20;0.20;;;;;;;;;;4856572;29;20589;-61
2023/01/28 08:46:30;;;;;;;0.50;0.50;;;;;;;;;;4856797;29;20218;-62
2023/01/28 08:48:57;;;;;;;0.10;0.10;;;;;;;;;;4855787;29;20220;-61
2023/01/28 08:51:24;;;;;;;0.30;0.10;;;;;;;;;;4856502;29;20229;-61
2023/01/28 08:53:51;;;;;;;0.43;0.43;;;;;;;;;;4855673;29;20222;-60
2023/01/28 08:56:18;;;;;;;0.70;0.70;;;;;;;;;;4855302;29;20341;-61
2023/01/28 08:58:47;;;;;;;0.10;0.10;;;;;;;;;;4854832;29;20224;-62
2023/01/28 09:01:14;;;;;;;0.27;0.27;;;;;;;;;;4855039;29;20225;-60
2023/01/28 09:03:41;;;;;;;0.60;0.47;;;;;;;;;;4854481;29;20226;-65
2023/01/28 09:06:08;;;;;;;0.10;0.10;;;;;;;;;;4845704;29;20213;-62
2023/01/28 09:08:35;;;;;;;0.40;0.40;;;;;;;;;;4845193;29;20271;-64
2023/01/28 09:11:02;;;;;;;0.20;0.10;;;;;;;;;;4848606;29;20310;-61
2023/01/28 09:13:30;;;;;;;0.70;0.70;;;;;;;;;;4853623;29;20210;-62
2023/01/28 09:15:58;;;;;;;0.30;0.30;;;;;;;;;;4855654;29;20253;-62
2023/01/28 09:18:25;;;;;;;0.10;0.10;;;;;;;;;;4855994;29;20221;-61
2023/01/28 09:20:52;;;;;;;0.03;0.03;;;;;;;;;;4853454;29;20230;-61
2023/01/28 09:23:19;;;;;;;1.03;0.60;;;;;;;;;;4855917;29;20413;-62
2023/01/28 09:25:46;;;;;;;0.93;0.77;;;;;;;;;;4855712;29;20220;-61
2023/01/28 09:28:13;;;;;;;0.30;0.30;;;;;;;;;;4855914;29;20226;-62
2023/01/28 09:30:40;;;;;;;0.20;0.20;;;;;;;;;;4855473;29;20222;-61
2023/01/28 09:33:08;;;;;;;0.27;0.27;;;;;;;;;;4855382;29;20230;-62
2023/01/28 09:35:35;;;;;;;0.10;0.10;;;;;;;;;;4855241;29;20587;-62
2023/01/28 09:38:02;;;;;;;0.53;0.53;;;;;;;;;;4855795;29;20236;-62
2023/01/28 09:40:32;;;;;;;0.20;0.20;;;;;;;;;;4854309;29;20225;-62
2023/01/28 09:43:04;;;;;;;0.07;0.07;;;;;;;;;;4855544;29;20749;-62
2023/01/28 09:45:34;;;;;;;0.00;0.00;;;;;;;;;;4855488;29;20273;-62
2023/01/28 09:48:02;;;;;;;0.20;0.13;;;;;;;;;;4855685;29;20718;-62
2023/01/28 09:50:33;;;;;;;1.00;0.77;;;;;;;;;;4855568;29;20690;-62
2023/01/28 09:53:02;;;;;;;0.30;0.30;;;;;;;;;;4855570;29;20221;-62
2023/01/28 09:55:32;;;;;;;0.40;0.40;;;;;;;;;;4854930;29;20241;-62
2023/01/28 09:57:59;;;;;;;0.10;0.10;;;;;;;;;;4855520;29;20218;-62
2023/01/28 10:00:30;;;;;;;0.23;0.23;;;;;;;;;;4854548;29;20210;-62
2023/01/28 10:03:08;;;;;;;0.77;0.30;;;;;;;;;;4855258;29;20266;-62
2023/01/28 10:05:45;;;;;;;0.50;0.30;;;;;;;;;;4855215;29;20210;-62
2023/01/28 10:08:17;;;;;;;0.40;0.10;;;;;;;;;;4854728;29;20308;-62
2023/01/28 10:10:45;;;;;;;0.07;0.07;;;;;;;;;;4855350;29;20230;-62
2023/01/28 10:13:17;;;;;;;0.27;0.27;;;;;;;;;;4854492;29;20213;-62
2023/01/28 10:15:52;;;;;;;0.20;0.20;;;;;;;;;;4858996;29;20245;-61
2023/01/28 10:18:23;;;;;;;0.20;0.20;;;;;;;;;;4857581;29;20216;-61
2023/01/28 10:20:55;;;;;;;0.77;0.20;;;;;;;;;;4849889;29;20245;-62
2023/01/28 10:23:23;;;;;;;0.30;0.30;;;;;;;;;;4858030;29;20717;-63
2023/01/28 10:25:50;;;;;;;0.20;0.20;;;;;;;;;;4858422;29;20218;-61
2023/01/28 10:28:20;;;;;;;0.93;0.50;;;;;;;;;;4858343;29;20572;-61
2023/01/28 10:30:48;;;;;;;0.73;0.73;;;;;;;;;;4858575;29;20243;-60
2023/01/28 10:33:18;;;;;;;0.57;0.57;;;;;;;;;;4858169;29;20764;-63
2023/01/28 10:35:46;;;;;;;0.83;0.67;;;;;;;;;;4857509;29;20256;-62
2023/01/28 10:38:16;;;;;;;0.00;0.00;;;;;;;;;;4858472;29;20213;-62
2023/01/28 10:40:46;;;;;;;0.20;0.20;;;;;;;;;;4858269;29;20594;-74
2023/01/28 10:43:14;;;;;;;0.30;0.20;;;;;;;;;;4858613;29;20219;-63
2023/01/28 10:45:47;;;;;;;0.63;0.40;;;;;;;;;;4857781;29;20216;-66
2023/01/28 10:48:17;;;;;;;0.13;0.13;;;;;;;;;;4856496;29;20620;-63
2023/01/28 10:50:51;;;;;;;0.60;0.60;;;;;;;;;;4856314;29;20217;-63
2023/01/28 10:53:19;;;;;;;0.50;0.50;;;;;;;;;;4857305;29;20308;-62
2023/01/28 10:55:49;;;;;;;0.67;0.50;;;;;;;;;;4857094;29;20312;-62
2023/01/28 10:58:18;;;;;;;0.57;0.57;;;;;;;;;;4856062;29;20842;-61
2023/01/28 11:00:45;;;;;;;0.20;0.20;;;;;;;;;;4857145;29;20225;-62
2023/01/28 11:03:18;;;;;;;0.50;0.50;;;;;;;;;;4853581;29;20714;-62
2023/01/28 11:05:51;;;;;;;0.10;0.10;;;;;;;;;;4857664;29;20209;-62
2023/01/28 11:08:20;;;;;;;0.03;0.03;;;;;;;;;;4857187;29;20217;-62
2023/01/28 11:10:47;;;;;;;0.20;0.20;;;;;;;;;;4857823;29;20210;-63
2023/01/28 11:13:16;;;;;;;0.50;0.50;;;;;;;;;;4858073;29;20226;-61
2023/01/28 11:15:47;;;;;;;0.23;0.23;;;;;;;;;;4857447;29;20618;-65
2023/01/28 11:18:17;;;;;;;0.40;0.40;;;;;;;;;;4857759;29;20599;-62
2023/01/28 11:20:50;;;;;;;1.33;0.20;;;;;;;;;;4857957;29;20249;-63
2023/01/28 11:23:26;;;;;;;0.27;0.20;;;;;;;;;;4857730;29;20245;-63
2023/01/28 11:26:01;;;;;;;0.40;0.40;;;;;;;;;;4857721;29;20297;-63
2023/01/28 11:28:28;;;;;;;0.00;0.00;;;;;;;;;;4857277;29;20225;-63
2023/01/28 11:30:57;;;;;;;0.27;0.07;;;;;;;;;;4856703;29;20242;-63
2023/01/28 11:33:33;;;;;;;0.10;0.10;;;;;;;;;;4857930;29;20229;-63
2023/01/28 11:36:05;;;;;;;0.30;0.30;;;;;;;;;;4857620;29;20336;-63
2023/01/28 11:38:34;;;;;;;1.07;0.80;;;;;;;;;;4856521;29;20293;-63
2023/01/28 11:41:01;;;;;;;1.50;0.10;;;;;;;;;;4857499;29;20309;-63
2023/01/28 11:43:29;;;;;;;0.43;0.23;;;;;;;;;;4849117;29;20219;-63
2023/01/28 11:45:59;;;;;;;0.40;0.40;;;;;;;;;;4846596;29;20634;-63
2023/01/28 11:48:31;;;;;;;0.20;0.20;;;;;;;;;;4856055;29;20214;-63
2023/01/28 11:51:00;;;;;;;0.50;0.30;;;;;;;;;;4853712;29;20217;-63
2023/01/28 11:53:40;;;;;;;3.50;0.47;;;;;;;;;;4856041;29;20536;-63
2023/01/28 11:56:13;;;;;;;0.30;0.30;;;;;;;;;;4854544;29;20223;-63
2023/01/28 11:58:45;;;;;;;0.17;0.17;;;;;;;;;;4857517;29;20211;-64
2023/01/28 12:01:14;;;;;;;0.23;0.23;;;;;;;;;;4856160;29;20293;-64
2023/01/28 12:03:52;;;;;;;0.20;0.20;;;;;;;;;;4855434;29;20367;-64
2023/01/28 12:06:25;;;;;;;0.10;0.10;;;;;;;;;;4856515;29;20238;-65
2023/01/28 12:08:59;;;;;;;0.30;0.30;;;;;;;;;;4856776;29;20670;-63
2023/01/28 12:14:20;;;;;;;0.17;0.17;;;;;;;;;;4856815;29;20221;-63
2023/01/28 12:16:53;;;;;;;0.23;0.23;;;;;;;;;;4856927;29;20248;-65
2023/01/28 12:19:41;;;;;;;1.23;0.77;;;;;;;;;;4857059;29;20206;-63
2023/01/28 12:22:17;;;;;;;0.50;0.43;;;;;;;;;;4852701;29;20306;-65
2023/01/28 12:24:53;;;;;;;0.10;0.10;;;;;;;;;;4857168;29;20682;-66
2023/01/28 12:27:27;;;;;;;1.00;0.10;;;;;;;;;;4851518;29;20267;-65
2023/01/28 12:29:58;;;;;;;0.30;0.30;;;;;;;;;;4856148;29;20229;-65
2023/01/28 12:32:38;;;;;;;1.27;0.63;;;;;;;;;;4856805;29;20221;-65
2023/01/28 12:35:19;;;;;;;0.00;0.00;;;;;;;;;;4856000;29;20232;-65
2023/01/28 12:37:52;;;;;;;0.00;0.00;;;;;;;;;;4845068;29;20222;-65
2023/01/28 12:40:30;;;;;;;0.30;0.30;;;;;;;;;;4842005;29;20237;-65
2023/01/28 12:43:01;;;;;;;0.10;0.10;;;;;;;;;;4854584;29;20292;-65
2023/01/28 12:45:30;;;;;;;0.73;0.73;;;;;;;;;;4856638;29;20228;-64
2023/01/28 12:47:59;;;;;;;0.33;0.33;;;;;;;;;;4856870;29;20221;-64
2023/01/28 12:50:28;;;;;;;0.40;0.40;;;;;;;;;;4856340;29;20213;-65
2023/01/28 12:52:57;;;;;;;0.00;0.00;;;;;;;;;;4856659;29;20225;-64
2023/01/28 12:55:35;;;;;;;0.57;0.57;;;;;;;;;;4855470;29;20291;-65
2023/01/28 12:58:03;;;;;;;0.50;0.50;;;;;;;;;;4856756;29;20358;-64
2023/01/28 13:00:35;;;;;;;0.10;0.10;;;;;;;;;;4860352;29;20317;-66
2023/01/28 13:03:15;;;;;;;0.30;0.30;;;;;;;;;;4854913;29;20216;-68
2023/01/28 13:05:46;;;;;;;0.40;0.40;;;;;;;;;;4855191;29;20756;-64
2023/01/28 13:08:25;;;;;;;0.10;0.10;;;;;;;;;;4851702;29;20229;-65
2023/01/28 13:10:57;;;;;;;0.13;0.13;;;;;;;;;;4848716;29;20898;-64
2023/01/28 13:13:28;;;;;;;0.10;0.10;;;;;;;;;;4856801;29;20312;-61
2023/01/28 13:16:06;;;;;;;0.20;0.20;;;;;;;;;;4855048;29;20579;-65
2023/01/28 13:18:38;;;;;;;0.40;0.40;;;;;;;;;;4855760;29;20282;-64
2023/01/28 13:21:11;;;;;;;0.10;0.10;;;;;;;;;;4855975;29;20608;-63
2023/01/28 13:23:40;;;;;;;0.57;0.57;;;;;;;;;;4852056;29;20335;-65
2023/01/28 13:26:15;;;;;;;3.20;0.77;;;;;;;;;;4853634;29;20217;-64
2023/01/28 13:28:45;;;;;;;0.40;0.27;;;;;;;;;;4850022;29;20245;-65
2023/01/28 13:31:16;;;;;;;1.50;0.30;;;;;;;;;;4848775;29;20225;-65
2023/01/28 13:33:46;;;;;;;0.00;0.00;;;;;;;;;;4850284;29;20302;-65
2023/01/28 13:36:30;;;;;;;0.00;0.00;;;;;;;;;;4849451;29;20264;-64
2023/01/28 13:39:04;;;;;;;0.10;0.10;;;;;;;;;;4850183;29;20676;-65
2023/01/28 13:41:41;;;;;;;0.27;0.27;;;;;;;;;;4847030;29;20222;-65
2023/01/28 13:44:21;;;;;;;0.10;0.10;;;;;;;;;;4854917;29;20238;-64
2023/01/28 13:46:51;;;;;;;0.10;0.10;;;;;;;;;;4854455;29;20232;-64
2023/01/28 13:49:21;;;;;;;0.00;0.00;;;;;;;;;;4852683;29;20537;-65
2023/01/28 13:51:57;;;;;;;0.20;0.20;;;;;;;;;;4855404;29;20218;-65
2023/01/28 13:54:25;;;;;;;0.10;0.10;;;;;;;;;;4846062;29;20312;-65
2023/01/28 13:57:08;;;;;;;0.57;0.20;;;;;;;;;;4847192;29;20256;-65
2023/01/28 13:59:48;;;;;;;0.40;0.40;;;;;;;;;;4846799;29;20218;-64
2023/01/28 14:02:32;;;;;;;0.20;0.20;;;;;;;;;;4856464;29;20221;-65
2023/01/28 14:05:17;;;;;;;0.03;0.03;;;;;;;;;;4858617;29;20232;-65
2023/01/28 14:07:53;;;;;;;0.23;0.23;;;;;;;;;;4836766;29;20684;-64
2023/01/28 14:10:37;;;;;;;0.10;0.10;;;;;;;;;;4852732;29;20325;-64
2023/01/28 14:13:22;;;;;;;0.17;0.17;;;;;;;;;;4844372;29;20617;-65
2023/01/28 14:16:10;;;;;;;0.10;0.10;;;;;;;;;;4846640;29;20214;-65
2023/01/28 14:18:39;;;;;;;0.10;0.10;;;;;;;;;;4848651;29;20227;-64
2023/01/28 14:21:10;;;;;;;0.23;0.23;;;;;;;;;;4854241;29;20904;-64
2023/01/28 14:23:38;;;;;;;0.20;0.20;;;;;;;;;;4853956;29;20583;-64
2023/01/28 14:26:14;;;;;;;0.00;0.00;;;;;;;;;;4852843;29;20229;-64
2023/01/28 14:28:46;;;;;;;0.07;0.07;;;;;;;;;;4854193;29;20261;-65
2023/01/28 14:31:16;;;;;;;0.07;0.07;;;;;;;;;;4853987;29;20990;-66
2023/01/28 14:33:45;;;;;;;0.23;0.03;;;;;;;;;;4849406;29;20217;-63
2023/01/28 14:36:12;;;;;;;0.47;0.47;;;;;;;;;;4853766;29;20247;-63
2023/01/28 14:38:40;;;;;;;0.20;0.20;;;;;;;;;;4852248;29;20820;-64
2023/01/28 14:41:08;;;;;;;0.23;0.23;;;;;;;;;;4851920;29;20206;-65
2023/01/28 14:43:37;;;;;;;0.23;0.23;;;;;;;;;;4854090;29;20221;-65
2023/01/28 14:46:10;;;;;;;0.80;0.40;;;;;;;;;;4852993;29;20213;-64
2023/01/28 14:48:39;;;;;;;2.13;0.63;;;;;;;;;;4853931;29;20213;-66
2023/01/28 14:51:13;;;;;;;0.10;0.10;;;;;;;;;;4853601;29;20295;-65
2023/01/28 14:54:04;;;;;;;0.30;0.30;;;;;;;;;;4854124;29;20363;-65
2023/01/28 14:56:36;;;;;;;0.50;0.13;;;;;;;;;;4843707;29;20242;-65
2023/01/28 14:59:05;;;;;;;0.97;0.87;;;;;;;;;;4852796;29;20652;-64
2023/01/28 15:01:32;;;;;;;1.03;0.73;;;;;;;;;;4848949;29;20317;-64
2023/01/28 15:03:59;;;;;;;0.10;0.10;;;;;;;;;;4854886;29;20237;-65
2023/01/28 15:06:31;;;;;;;0.10;0.10;;;;;;;;;;4856581;29;20217;-65
2023/01/28 15:09:07;;;;;;;0.07;0.07;;;;;;;;;;4856949;29;20565;-64
2023/01/28 15:11:34;;;;;;;0.97;0.87;;;;;;;;;;4851267;29;20210;-65
2023/01/28 15:14:01;;;;;;;0.20;0.20;;;;;;;;;;4856592;29;20226;-65
2023/01/28 15:16:30;;;;;;;0.37;0.20;;;;;;;;;;4857373;29;20245;-65
2023/01/28 15:18:58;;;;;;;0.40;0.40;;;;;;;;;;4857850;29;20219;-65
2023/01/28 15:21:26;;;;;;;0.17;0.17;;;;;;;;;;4857774;29;20342;-64
2023/01/28 15:23:57;;;;;;;0.23;0.23;;;;;;;;;;4857408;29;20242;-62
2023/01/28 15:26:25;;;;;;;0.10;0.10;;;;;;;;;;4857559;29;20560;-66
2023/01/28 15:28:53;;;;;;;0.10;0.10;;;;;;;;;;4856253;29;20215;-65
2023/01/28 15:31:21;;;;;;;0.30;0.20;;;;;;;;;;4857401;29;20233;-63
2023/01/28 15:33:56;;;;;;;0.40;0.40;;;;;;;;;;4856949;29;20207;-64